Aérodrome :
LOGIN :

S'inscrire | Disclaimer

   EN    FR    IT 

 










Légende :    VFR   VFR Marginal   IFR   IFR Intensif   IFR Très Intensif
Visi : 
Plafond : 
>= 8 km
>= 3000ft
5 à 8 km
1000 à 3000 ft
1500m à 5 km
500 à 1000 ft
800 à 1500m
200 à 500 ft
< 800m
< 200 ft
Symboles :   Orages  Brouillard  Fortes neiges  Fortes précipitations  Vent > 20 kt
SIGMETs :   Divers  Orages  Givrage  Turbulence  Onde Orograph.  Cendres Volcan.






- Altitude de l'aérodrome : 33 ft
- Code IATA : MHZ


EGUN - RAF Mildenhall

DERNIER METAR :
  • 141155Z 23010G18KT 9999 SCT040 OVC060 18/12 A2952 RMK AO2A SHRAB23E37 SLP000 P0000 60000 70005 T01750115 10191 20138 58003 $

METARs EXPIRÉS :
  • 141137Z 26010G20KT 9999 FEW029 BKN065 15/11 A2952 RMK AO2A SHRAB23E37 SLP000 $
  • 141123Z 23015G20KT 5000 -SHRA SCT030 BKN070 18/09 A2952 RMK AO2A SHRAB23 SLP000 $
  • 141055Z 21015G22KT 9999 SCT030 BKN060 19/10 A2952 RMK AO2A SHRAE04 SLP000 P0000 T01850096 $
  • 141004Z 23015G25KT 9999 SCT029 BKN065 16/11 A2953 RMK AO2A SHRAE04 SLP003 $
  • 140955Z 24020G25KT 9999 -SHRA SCT030 BKN060 17/10 A2953 RMK AO2A SHRAB53 PK WND 21026/50 SLP003 P0000 T01720098 $
  • 140953Z 24019G26KT 9999 -SHRA SCT030 BKN060 17/10 A2953 RMK SHRAB53 SLP003 $
  • 140855Z 22015G20KT 9999 FEW026 BKN055 17/10 A2952 RMK AO2A SLP000 T01700104 57003 $
  • 140755Z 22011KT 9999 SCT018 OVC043 16/11 A2953 RMK AO2A SLP003 T01550109 $
  • 140735Z 20012KT 9999 SCT016 BKN040 15/12 A2952 RMK AO2A SLP000 $
  • 140715Z 20010KT 9999 BKN014 BKN020 BKN044 15/12 A2953 RMK AO2A SLP003 $
  • 140655Z 20011KT 9999 BKN015 BKN041 15/12 A2953 RMK AO2A SLP003 T01470117 $

TAF AMD TAF EGUN
Valide du 14 à 07h jusqu'au 15 à 10h UTC


140716Z 1407/1510 20012KT 8000 -SHRA BR BKN017 OVC050 QNH2952INS
BECMG 1407/1409 20013KT 8000 -SHRA BR BKN030 OVC050 QNH2951INS
TEMPO 1409/1415 21013G23KT 510004
BECMG 1414/1415 22012KT 9999 -SHRA SCT030 BKN060 600606 QNH2950INS
TEMPO 1415/1420 21012G22KT -SHRA VCTS BKN030CB
BECMG 1420/1421 21009KT 9999 NSW SCT012 BKN025 620606 QNH2947INS
BECMG 1504/1506 23012KT 9999 SCT020 QNH2946INS
BECMG 1508/1510 21012G22KT 8000 -SHRA VCTS SCT020 BKN040CB QNH2945INS TX19/1413Z TN09/1504Z



MET'MAP, la Météo Aéronautique d'un coup d'oeil ! - Copyright ORBIFLY Décembre 2007 - Disclaimer

ORBIFLY MET'MAP TEAM :

Programmation & Développement : Alexandra Zaïnal
Sur une idée originale de : Baudouin d'Aumeries
Soutien technique & logistique : Manuel Goepfert
Assistance : Marc-Olivier Méhu




SOURCES & CREDITS :

   NOAA